Sichem Hawk — 9HSE9 — position and weather

sailwx.info

Track history (hours):
 
Tides and Currents Weather Stations Pressure Air Temp Water Temp Dewpoint Dewpoint Depression Visibility Wind Speed Wind Dir Waves Ship Positions

Sichem Hawk

Last reported at 2018-May-27 04:15 UTC. Time now 2018-May-27 21:37 UTC.
Position N 37°34' W 001°00'.

Length 171 m; draft 6.4 m.

Type: Tanker. MMSI: 249445000.

Date/timePositionNaut miles runAvg speedWind from/ knotsBaromVisibWave heightAir tempDewpointWater temp
2018-May-27 04:15N 37°34' W 001°00'2 6.2
2018-May-27 03:59N 37°33' W 001°02'2 0.0
2018-May-25 12:38N 37°32' W 001°04'1 6.6
2018-May-25 12:29N 37°31' W 001°05'21711.4
2018-May-24 17:23N 35°60' W 005°11'615.0
2018-May-24 17:00N 35°59' W 005°17'816.1
2018-May-24 16:30N 35°57' W 005°27'15713.8
2018-May-24 05:09N 36°22' W 008°39'7312.4
2018-May-23 23:15N 37°15' W 009°42'1413.5
2018-May-23 22:13N 37°28' W 009°47'313.6
2018-May-23 22:00N 37°31' W 009°48'1013.8
2018-May-23 21:18N 37°41' W 009°49'513.5
2018-May-23 20:57N 37°45' W 009°50'813.8
2018-May-23 20:22N 37°53' W 009°52'513.8
2018-May-23 20:00N 37°58' W 009°53'713.7
2018-May-23 19:30N 38°05' W 009°56'713.6
2018-May-23 19:00N 38°11' W 009°58'713.7
2018-May-23 18:30N 38°18' W 010°01'713.7
2018-May-23 18:00N 38°25' W 010°02'713.7
2018-May-23 17:30N 38°31' W 010°03'713.7
2018-May-23 17:00N 38°38' W 010°05'713.4
2018-May-23 16:30N 38°45' W 010°07'713.5
2018-May-23 16:00N 38°51' W 010°06'713.4
2018-May-23 15:31N 38°58' W 010°06'713.7
2018-May-23 15:00N 39°05' W 010°05'713.8
2018-May-23 14:30N 39°12' W 010°06'813.5
2018-May-23 13:53N 39°20' W 010°06'  
Track history (hours):
 
Tides and Currents Weather Stations Pressure Air Temp Water Temp Dewpoint Dewpoint Depression Visibility Wind Speed Wind Dir Waves Ship Positions

Sichem Hawk

Last reported at 2018-May-27 04:15 UTC. Time now 2018-May-27 21:37 UTC.
Position N 37°34' W 001°00'.

Length 171 m; draft 6.4 m.

Type: Tanker. MMSI: 249445000.

Date/timePositionNaut miles runAvg speedWind from/ knotsBaromVisibWave heightAir tempDewpointWater temp
2018-May-27 04:15N 37°34' W 001°00'2 6.2
2018-May-27 03:59N 37°33' W 001°02'2 0.0
2018-May-25 12:38N 37°32' W 001°04'1 6.6
2018-May-25 12:29N 37°31' W 001°05'21711.4
2018-May-24 17:23N 35°60' W 005°11'615.0
2018-May-24 17:00N 35°59' W 005°17'816.1
2018-May-24 16:30N 35°57' W 005°27'15713.8
2018-May-24 05:09N 36°22' W 008°39'7312.4
2018-May-23 23:15N 37°15' W 009°42'1413.5
2018-May-23 22:13N 37°28' W 009°47'313.6
2018-May-23 22:00N 37°31' W 009°48'1013.8
2018-May-23 21:18N 37°41' W 009°49'513.5
2018-May-23 20:57N 37°45' W 009°50'813.8
2018-May-23 20:22N 37°53' W 009°52'513.8
2018-May-23 20:00N 37°58' W 009°53'713.7
2018-May-23 19:30N 38°05' W 009°56'713.6
2018-May-23 19:00N 38°11' W 009°58'713.7
2018-May-23 18:30N 38°18' W 010°01'713.7
2018-May-23 18:00N 38°25' W 010°02'713.7
2018-May-23 17:30N 38°31' W 010°03'713.7
2018-May-23 17:00N 38°38' W 010°05'713.4
2018-May-23 16:30N 38°45' W 010°07'713.5
2018-May-23 16:00N 38°51' W 010°06'713.4
2018-May-23 15:31N 38°58' W 010°06'713.7
2018-May-23 15:00N 39°05' W 010°05'713.8
2018-May-23 14:30N 39°12' W 010°06'813.5
2018-May-23 13:53N 39°20' W 010°06'  

Dump ship's entire track history